Time;durP1;ratioP1;P1;durP2;ratioP2;P2;SDS_P1;SDS_P2;PMS_P1;PMS_P2;Temp;Humidity;BMP_temperature;BMP_pressure;BME280_temperature;BME280_humidity;BME280_pressure;Samples;Min_cycle;Max_cycle;Signal;HPM_P1;HPM_P2
2022/11/20 00:01:18;;;;;;;4.20;2.95;;;1.30;66.00;;;;;;5012569;28;20405;-67
2022/11/20 00:03:44;;;;;;;4.38;2.83;;;1.30;66.10;;;;;;5011530;28;20511;-66
2022/11/20 00:06:12;;;;;;;8.30;3.08;;;1.30;66.00;;;;;;5013332;28;20034;-66
2022/11/20 00:08:38;;;;;;;3.33;2.00;;;1.20;66.00;;;;;;5012378;28;20081;-66
2022/11/20 00:11:30;;;;;;;3.88;2.53;;;1.20;66.10;;;;;;5045371;28;20044;-66
2022/11/20 00:13:59;;;;;;;2.83;2.35;;;1.20;66.10;;;;;;5012926;28;20038;-71
2022/11/20 00:16:26;;;;;;;3.05;2.60;;;1.20;66.40;;;;;;5012076;28;20030;-71
2022/11/20 00:18:53;;;;;;;3.30;2.60;;;1.10;66.50;;;;;;5013270;28;20036;-71
2022/11/20 00:21:24;;;;;;;3.72;2.58;;;1.10;66.60;;;;;;5012143;28;20019;-72
2022/11/20 00:23:51;;;;;;;8.32;2.85;;;1.10;66.60;;;;;;5012141;28;20026;-72
2022/11/20 00:26:19;;;;;;;3.30;2.50;;;1.10;66.70;;;;;;5013453;28;20407;-71
2022/11/20 00:28:52;;;;;;;4.20;2.65;;;1.00;66.80;;;;;;5012878;28;20103;-71
2022/11/20 00:31:18;;;;;;;3.83;2.60;;;1.00;66.80;;;;;;5011897;28;20022;-71
2022/11/20 00:33:45;;;;;;;4.55;2.63;;;1.00;66.80;;;;;;5009719;28;20029;-66
2022/11/20 00:36:17;;;;;;;3.70;2.42;;;1.00;66.80;;;;;;5021985;28;20116;-66
2022/11/20 00:38:43;;;;;;;3.50;2.63;;;1.00;66.90;;;;;;5018669;28;20026;-66
2022/11/20 00:41:10;;;;;;;2.70;1.90;;;0.90;67.10;;;;;;5011713;28;20393;-66
2022/11/20 00:43:37;;;;;;;2.40;2.00;;;0.90;67.20;;;;;;5023728;28;20507;-66
2022/11/20 00:46:08;;;;;;;4.95;2.60;;;0.90;67.00;;;;;;5003346;28;20033;-66
2022/11/20 00:48:34;;;;;;;3.08;2.47;;;0.90;67.00;;;;;;5010754;28;20034;-71
2022/11/20 00:51:00;;;;;;;4.43;2.80;;;0.80;66.90;;;;;;5011406;28;20037;-72
2022/11/20 00:53:26;;;;;;;3.00;2.35;;;0.90;67.00;;;;;;4992003;28;20029;-71
2022/11/20 00:56:00;;;;;;;4.07;2.22;;;0.80;67.20;;;;;;5008519;28;20413;-72
2022/11/20 00:58:30;;;;;;;3.50;2.20;;;0.90;67.30;;;;;;5000939;28;20709;-71
2022/11/20 01:01:08;;;;;;;13.10;2.63;;;0.80;67.40;;;;;;5012591;28;20464;-72
2022/11/20 01:03:39;;;;;;;5.22;2.60;;;0.80;67.50;;;;;;5012614;28;20105;-72
2022/11/20 01:06:11;;;;;;;5.50;2.20;;;0.80;67.60;;;;;;5012183;28;20485;-71
2022/11/20 01:08:37;;;;;;;3.42;2.17;;;0.70;67.50;;;;;;5011978;28;20115;-71
2022/11/20 01:11:07;;;;;;;3.67;2.05;;;0.70;67.70;;;;;;5011763;28;20054;-71
2022/11/20 01:13:39;;;;;;;2.30;2.10;;;0.70;67.70;;;;;;5012399;28;20041;-71
2022/11/20 01:16:16;;;;;;;4.07;2.08;;;0.70;67.60;;;;;;4986961;28;20029;-72
2022/11/20 01:18:45;;;;;;;5.30;2.85;;;0.60;67.60;;;;;;5011613;28;20025;-71
2022/11/20 01:21:20;;;;;;;3.80;2.47;;;0.60;67.70;;;;;;5011083;28;20029;-71
2022/11/20 01:23:47;;;;;;;6.70;2.65;;;0.60;67.80;;;;;;5011957;28;20116;-71
2022/11/20 01:26:18;;;;;;;4.15;2.53;;;0.60;67.80;;;;;;5011835;28;20385;-71
2022/11/20 01:28:44;;;;;;;2.45;2.13;;;0.60;67.80;;;;;;5011883;28;20036;-72
2022/11/20 01:31:24;;;;;;;4.47;3.15;;;0.60;68.00;;;;;;5012025;28;20120;-72
2022/11/20 01:33:52;;;;;;;3.72;1.98;;;0.60;68.00;;;;;;5012236;28;20049;-71
2022/11/20 01:36:20;;;;;;;3.85;2.88;;;0.60;68.10;;;;;;4999917;28;20500;-71
2022/11/20 01:38:47;;;;;;;2.80;2.38;;;0.50;68.20;;;;;;5020725;28;20397;-71
2022/11/20 01:43:20;;;;;;;4.72;2.88;;;0.50;68.20;;;;;;5001498;28;20024;-71
2022/11/20 01:44:00;;;;;;;2.38;1.92;;;0.50;68.10;;;;;;5001725;28;20124;-71
2022/11/20 01:46:27;;;;;;;3.35;2.10;;;0.40;68.20;;;;;;5011884;28;20076;-71
2022/11/20 01:49:20;;;;;;;3.80;2.85;;;0.40;68.20;;;;;;5011890;28;20026;-71
2022/11/20 01:52:07;;;;;;;3.30;2.75;;;0.50;68.20;;;;;;5011879;28;20024;-71
2022/11/20 01:54:43;;;;;;;3.45;2.08;;;0.40;68.10;;;;;;5011414;28;20476;-66
2022/11/20 01:57:12;;;;;;;3.78;2.25;;;0.40;68.30;;;;;;5011310;28;20116;-66
2022/11/20 01:59:46;;;;;;;5.10;2.97;;;0.40;68.20;;;;;;5026105;28;20034;-66
2022/11/20 02:02:11;;;;;;;5.88;2.40;;;0.40;68.20;;;;;;5011261;28;20030;-66
2022/11/20 02:04:37;;;;;;;5.10;2.88;;;0.40;68.90;;;;;;5041943;28;20534;-66
2022/11/20 02:07:05;;;;;;;3.45;2.28;;;0.40;68.20;;;;;;5038718;28;20046;-66
2022/11/20 02:09:30;;;;;;;3.45;2.30;;;0.30;68.20;;;;;;5009323;28;20026;-66
2022/11/20 02:11:57;;;;;;;2.88;1.95;;;0.40;68.40;;;;;;5011295;28;20428;-66
2022/11/20 02:14:24;;;;;;;2.83;2.63;;;0.30;68.40;;;;;;5042606;28;20117;-67
2022/11/20 02:16:50;;;;;;;4.18;2.50;;;0.30;68.40;;;;;;5010967;28;20025;-67
2022/11/20 02:19:30;;;;;;;3.63;2.33;;;0.30;68.30;;;;;;5010314;28;20108;-67
2022/11/20 02:22:08;;;;;;;3.40;2.58;;;0.40;68.30;;;;;;5040819;28;20536;-67
2022/11/20 02:24:34;;;;;;;2.90;2.45;;;0.30;68.20;;;;;;5007730;28;20421;-66
2022/11/20 02:27:07;;;;;;;4.63;3.10;;;0.30;68.50;;;;;;5023335;28;20393;-72
2022/11/20 02:29:50;;;;;;;7.63;2.70;;;0.30;68.50;;;;;;5011422;28;20022;-72
2022/11/20 02:32:26;;;;;;;3.63;2.55;;;0.20;68.70;;;;;;5011751;28;20026;-72
2022/11/20 02:34:52;;;;;;;3.78;2.95;;;0.20;68.70;;;;;;5010621;28;20052;-66
2022/11/20 02:37:19;;;;;;;3.55;2.42;;;0.20;68.80;;;;;;5010731;28;20058;-66
2022/11/20 02:39:47;;;;;;;6.00;2.58;;;0.20;69.10;;;;;;5044895;28;20030;-67
2022/11/20 02:42:13;;;;;;;3.50;2.30;;;0.20;69.10;;;;;;5015200;28;20457;-66
2022/11/20 02:44:39;;;;;;;5.05;2.05;;;0.10;68.90;;;;;;5014826;28;20022;-66
2022/11/20 02:47:05;;;;;;;4.18;2.45;;;0.10;69.10;;;;;;5046670;28;20587;-66
2022/11/20 02:49:30;;;;;;;4.55;2.70;;;0.10;69.10;;;;;;5014422;28;20037;-72
2022/11/20 02:51:56;;;;;;;6.15;3.17;;;0.10;69.00;;;;;;5015322;28;20030;-72
2022/11/20 02:54:22;;;;;;;3.83;2.88;;;0.00;69.00;;;;;;5012831;28;20018;-71
2022/11/20 02:56:48;;;;;;;2.78;2.05;;;0.10;69.10;;;;;;5015572;28;20076;-72
2022/11/20 02:59:15;;;;;;;5.00;2.50;;;0.00;69.00;;;;;;5014673;28;20034;-72
2022/11/20 03:01:40;;;;;;;5.07;2.58;;;0.00;69.10;;;;;;5015449;28;20026;-72
2022/11/20 03:04:06;;;;;;;4.15;2.33;;;0.00;69.10;;;;;;5014927;28;20548;-72
2022/11/20 03:06:32;;;;;;;4.55;2.50;;;-0.10;69.00;;;;;;5015328;28;20393;-72
2022/11/20 03:08:58;;;;;;;4.80;2.83;;;-0.10;68.90;;;;;;5022103;28;20041;-71
2022/11/20 03:11:24;;;;;;;1.88;1.77;;;-0.10;69.10;;;;;;5014762;28;20034;-71
2022/11/20 03:13:49;;;;;;;3.50;2.47;;;-0.10;69.20;;;;;;5018625;28;20509;-71
2022/11/20 03:16:21;;;;;;;2.85;2.30;;;-0.20;69.10;;;;;;5015059;28;20073;-72
2022/11/20 03:18:47;;;;;;;2.90;2.15;;;-0.20;69.20;;;;;;5023172;28;20060;-71
2022/11/20 03:21:14;;;;;;;3.55;2.47;;;-0.20;69.20;;;;;;5021925;28;20500;-66
2022/11/20 03:23:40;;;;;;;4.00;2.20;;;-0.20;69.30;;;;;;5018440;28;20030;-71
2022/11/20 03:26:15;;;;;;;8.20;3.20;;;-0.20;69.30;;;;;;5019953;28;20049;-71
2022/11/20 03:28:42;;;;;;;5.05;2.38;;;-0.20;69.30;;;;;;5009758;28;21460;-71
2022/11/20 03:31:10;;;;;;;3.72;2.35;;;-0.20;69.10;;;;;;5014635;28;20026;-73
2022/11/20 03:33:36;;;;;;;3.85;2.40;;;-0.20;69.10;;;;;;5014197;28;20029;-73
2022/11/20 03:36:06;;;;;;;5.63;3.25;;;-0.30;69.20;;;;;;5001425;28;20036;-72
2022/11/20 03:38:33;;;;;;;4.70;2.65;;;-0.30;69.20;;;;;;5026778;28;20076;-72
2022/11/20 03:41:04;;;;;;;3.97;2.15;;;-0.30;69.10;;;;;;5017004;28;20033;-72
2022/11/20 03:43:31;;;;;;;3.10;2.70;;;-0.30;69.20;;;;;;5014724;28;20097;-66
2022/11/20 03:45:57;;;;;;;3.20;2.58;;;-0.30;69.40;;;;;;5003641;28;20034;-72
2022/11/20 03:48:23;;;;;;;4.10;2.08;;;-0.30;69.40;;;;;;5013052;28;20058;-72
2022/11/20 03:50:48;;;;;;;5.25;3.17;;;-0.30;69.50;;;;;;5046121;28;20058;-66
2022/11/20 03:53:15;;;;;;;3.53;2.30;;;-0.40;69.40;;;;;;5014285;28;20053;-67
2022/11/20 03:55:41;;;;;;;4.30;2.60;;;-0.30;69.50;;;;;;5015804;28;20506;-67
2022/11/20 03:58:07;;;;;;;2.28;2.08;;;-0.40;69.70;;;;;;5019870;28;20026;-66
2022/11/20 04:00:33;;;;;;;2.17;1.95;;;-0.40;69.70;;;;;;5020620;28;20037;-67
2022/11/20 04:03:00;;;;;;;8.55;3.80;;;-0.40;69.70;;;;;;5019913;28;20022;-72
2022/11/20 04:05:25;;;;;;;8.90;2.50;;;-0.40;69.70;;;;;;5021829;28;20088;-72
2022/11/20 04:07:51;;;;;;;2.53;2.28;;;-0.40;69.80;;;;;;5043196;28;20457;-67
2022/11/20 04:10:17;;;;;;;5.50;2.03;;;-0.50;69.70;;;;;;5025648;28;20037;-66
2022/11/20 04:12:42;;;;;;;3.35;2.70;;;-0.40;69.70;;;;;;5024081;28;20392;-67
2022/11/20 04:15:08;;;;;;;2.85;2.20;;;-0.50;69.50;;;;;;5024962;28;20028;-72
2022/11/20 04:17:34;;;;;;;3.67;2.67;;;-0.50;69.70;;;;;;5018823;28;20108;-72
2022/11/20 04:20:00;;;;;;;3.45;2.17;;;-0.50;69.70;;;;;;5013677;28;20106;-72
2022/11/20 04:22:26;;;;;;;2.75;2.33;;;-0.50;69.60;;;;;;5019451;28;20025;-67
2022/11/20 04:24:52;;;;;;;4.43;1.95;;;-0.50;69.80;;;;;;5022653;28;20033;-67
2022/11/20 04:27:17;;;;;;;6.22;2.80;;;-0.50;70.30;;;;;;5022928;28;20044;-66
2022/11/20 04:29:43;;;;;;;3.33;3.00;;;-0.50;69.70;;;;;;5021577;28;20048;-67
2022/11/20 04:32:09;;;;;;;3.13;2.22;;;-0.60;69.70;;;;;;5021694;28;20053;-67
2022/11/20 04:34:34;;;;;;;18.52;2.80;;;-0.60;69.80;;;;;;5022713;28;20026;-67
2022/11/20 04:37:00;;;;;;;3.58;2.60;;;-0.60;69.80;;;;;;5019441;28;20034;-67
2022/11/20 04:39:27;;;;;;;5.15;2.85;;;-0.60;69.70;;;;;;5018602;28;20034;-67
2022/11/20 04:42:28;;;;;;;5.07;2.78;;;-0.60;69.80;;;;;;5022993;28;20476;-67
2022/11/20 04:44:38;;;;;;;2.92;2.38;;;-0.60;69.90;;;;;;5018743;28;20515;-66
2022/11/20 04:47:04;;;;;;;2.55;1.90;;;-0.70;69.70;;;;;;5018922;28;20065;-66
2022/11/20 04:49:31;;;;;;;3.60;2.15;;;-0.70;69.60;;;;;;5024934;28;20024;-67
2022/11/20 04:51:57;;;;;;;8.75;3.22;;;-0.70;69.50;;;;;;5013842;28;20026;-67
2022/11/20 04:54:22;;;;;;;4.85;3.17;;;-0.70;69.70;;;;;;5024624;28;20155;-66
2022/11/20 04:56:48;;;;;;;3.65;2.88;;;-0.70;69.80;;;;;;5031714;28;20112;-66
2022/11/20 04:59:14;;;;;;;4.68;2.75;;;-0.70;70.40;;;;;;5027772;28;20124;-67
2022/11/20 05:01:40;;;;;;;4.50;2.78;;;-0.70;70.00;;;;;;5022887;28;20038;-67
2022/11/20 05:04:05;;;;;;;2.78;2.20;;;-0.80;70.10;;;;;;4999680;28;20084;-73
2022/11/20 05:06:31;;;;;;;5.13;3.00;;;-0.80;70.10;;;;;;5016350;28;20030;-72
2022/11/20 05:08:57;;;;;;;4.10;1.92;;;-0.80;70.30;;;;;;5012119;28;20030;-72
2022/11/20 05:11:24;;;;;;;4.32;3.28;;;-0.80;70.40;;;;;;5000241;28;20045;-73
2022/11/20 05:13:51;;;;;;;4.32;2.42;;;-0.80;70.40;;;;;;5013014;28;20073;-72
2022/11/20 05:16:19;;;;;;;3.97;2.47;;;-0.80;70.20;;;;;;5045234;28;20069;-73
2022/11/20 05:18:45;;;;;;;6.25;3.50;;;-0.80;70.10;;;;;;5011517;28;20073;-72
2022/11/20 05:21:12;;;;;;;9.10;2.78;;;-0.80;70.30;;;;;;5012667;28;20026;-73
2022/11/20 05:23:51;;;;;;;5.57;3.20;;;-0.80;70.20;;;;;;5043750;28;20037;-72
2022/11/20 05:26:21;;;;;;;8.35;3.50;;;-0.80;70.20;;;;;;5025539;28;20021;-72
2022/11/20 05:28:47;;;;;;;5.13;2.72;;;-0.90;70.20;;;;;;5013017;28;20017;-72
2022/11/20 05:31:16;;;;;;;7.20;4.05;;;-0.90;70.20;;;;;;5010525;28;20026;-72
2022/11/20 05:33:43;;;;;;;6.22;3.08;;;-0.90;70.20;;;;;;5009835;28;20021;-72
2022/11/20 05:36:11;;;;;;;4.22;2.83;;;-0.90;70.20;;;;;;5012211;28;20045;-65
2022/11/20 05:38:37;;;;;;;5.90;3.72;;;-0.90;70.30;;;;;;5012264;28;20059;-66
2022/11/20 05:41:07;;;;;;;8.57;3.20;;;-0.90;70.20;;;;;;5021931;28;20026;-70
2022/11/20 05:43:34;;;;;;;5.82;3.42;;;-0.90;70.20;;;;;;5014918;28;20181;-67
2022/11/20 05:46:01;;;;;;;3.25;2.15;;;-0.90;70.20;;;;;;5022829;28;20042;-68
2022/11/20 05:48:28;;;;;;;4.47;3.33;;;-0.90;70.10;;;;;;5023683;28;20041;-74
2022/11/20 05:50:53;;;;;;;5.57;3.33;;;-0.90;70.20;;;;;;5015981;28;20401;-74
2022/11/20 05:53:19;;;;;;;4.28;3.15;;;-1.00;70.90;;;;;;5017351;28;20013;-68
2022/11/20 05:55:45;;;;;;;7.80;3.63;;;-1.00;70.30;;;;;;5010598;28;20029;-68
2022/11/20 05:58:10;;;;;;;7.97;3.20;;;-1.00;70.20;;;;;;5017739;28;20040;-75
2022/11/20 06:00:37;;;;;;;5.55;2.67;;;-1.00;70.20;;;;;;5010426;28;20056;-74
2022/11/20 06:03:02;;;;;;;4.65;3.33;;;-1.00;70.20;;;;;;5022830;28;20036;-75
2022/11/20 06:05:28;;;;;;;5.47;3.22;;;-1.00;70.30;;;;;;5027806;28;20037;-76
2022/11/20 06:07:54;;;;;;;4.70;3.40;;;-1.00;70.30;;;;;;5022969;28;20056;-74
2022/11/20 06:10:19;;;;;;;7.07;3.78;;;-1.00;70.30;;;;;;5021144;28;20041;-75
2022/11/20 06:12:45;;;;;;;3.90;3.22;;;-1.00;70.30;;;;;;5014786;28;20044;-74
2022/11/20 06:15:11;;;;;;;6.18;2.80;;;-1.00;70.30;;;;;;5018548;28;20096;-68
2022/11/20 06:17:36;;;;;;;3.40;2.65;;;-1.00;70.20;;;;;;5019890;28;20460;-69
2022/11/20 06:20:02;;;;;;;5.57;3.75;;;-1.10;70.20;;;;;;5017865;28;20503;-70
2022/11/20 06:22:28;;;;;;;6.28;3.45;;;-1.10;70.30;;;;;;5024370;28;20366;-69
2022/11/20 06:24:53;;;;;;;5.88;3.50;;;-1.10;70.40;;;;;;5021813;28;20128;-69
2022/11/20 06:27:19;;;;;;;3.85;2.55;;;-1.10;70.40;;;;;;5020650;28;20069;-69
2022/11/20 06:29:45;;;;;;;5.13;2.65;;;-1.10;70.30;;;;;;5021059;28;20057;-75
2022/11/20 06:32:10;;;;;;;6.50;3.47;;;-1.10;70.40;;;;;;5019164;28;20079;-75
2022/11/20 06:34:36;;;;;;;4.85;2.67;;;-1.10;70.50;;;;;;5018096;28;20116;-73
2022/11/20 06:37:02;;;;;;;3.72;2.28;;;-1.10;70.50;;;;;;5009743;28;20034;-76
2022/11/20 06:39:27;;;;;;;6.65;3.63;;;-1.20;70.30;;;;;;5009552;28;20045;-74
2022/11/20 06:41:53;;;;;;;4.63;3.33;;;-1.20;70.40;;;;;;5021331;28;20022;-69
2022/11/20 06:44:19;;;;;;;5.95;2.85;;;-1.20;70.40;;;;;;5008865;28;20094;-68
2022/11/20 06:46:44;;;;;;;5.00;3.42;;;-1.20;70.50;;;;;;5024747;28;20030;-69
2022/11/20 06:49:10;;;;;;;5.18;3.05;;;-1.20;70.50;;;;;;5019907;28;20034;-69
2022/11/20 06:51:36;;;;;;;5.15;2.97;;;-1.30;70.50;;;;;;5011611;28;20026;-69
2022/11/20 06:54:02;;;;;;;6.20;3.72;;;-1.30;70.50;;;;;;5018991;28;20021;-66
2022/11/20 06:56:28;;;;;;;3.72;2.50;;;-1.30;70.50;;;;;;5010957;28;20026;-67
2022/11/20 06:58:53;;;;;;;6.38;3.83;;;-1.30;70.60;;;;;;5014505;28;20477;-73
2022/11/20 07:01:19;;;;;;;8.40;3.60;;;-1.30;70.50;;;;;;5020775;28;20171;-74
2022/11/20 07:03:45;;;;;;;4.55;2.65;;;-1.20;70.60;;;;;;5026722;28;20404;-74
2022/11/20 07:06:10;;;;;;;5.20;3.67;;;-1.20;70.60;;;;;;5025431;28;20029;-76
2022/11/20 07:08:36;;;;;;;5.28;2.92;;;-1.20;70.60;;;;;;5018248;28;20038;-74
2022/11/20 07:11:06;;;;;;;4.50;2.92;;;-1.10;70.50;;;;;;5054400;28;20127;-74
2022/11/20 07:13:33;;;;;;;4.40;3.35;;;-1.10;70.60;;;;;;5014874;28;20022;-69
2022/11/20 07:16:04;;;;;;;6.28;2.97;;;-1.10;70.60;;;;;;5025757;28;20028;-69
2022/11/20 07:18:30;;;;;;;4.82;2.95;;;-1.10;70.40;;;;;;5016756;28;20033;-74
2022/11/20 07:20:55;;;;;;;7.00;3.53;;;-1.10;70.50;;;;;;5013654;28;20026;-68
2022/11/20 07:23:21;;;;;;;4.32;3.45;;;-1.10;70.60;;;;;;5025348;28;20441;-70
2022/11/20 07:25:47;;;;;;;6.93;3.95;;;-1.10;70.70;;;;;;5012172;28;20046;-68
2022/11/20 07:28:13;;;;;;;5.03;3.22;;;-1.10;70.70;;;;;;5018125;28;20149;-68
2022/11/20 07:30:39;;;;;;;5.13;2.95;;;-1.10;70.60;;;;;;5013102;28;20736;-68
2022/11/20 07:33:05;;;;;;;4.30;2.95;;;-1.10;70.70;;;;;;5022522;28;20104;-67
2022/11/20 07:35:30;;;;;;;5.63;3.97;;;-1.00;70.80;;;;;;5025500;28;20033;-68
2022/11/20 07:37:56;;;;;;;4.78;3.17;;;-1.00;70.70;;;;;;5020811;28;20033;-69
2022/11/20 07:40:22;;;;;;;5.65;2.90;;;-1.00;70.80;;;;;;5026017;28;20034;-69
2022/11/20 07:42:54;;;;;;;9.63;3.25;;;-1.00;70.80;;;;;;5023549;28;20065;-72
2022/11/20 07:45:22;;;;;;;6.50;3.60;;;-1.00;70.90;;;;;;5012475;28;20080;-73
2022/11/20 07:47:48;;;;;;;4.40;3.28;;;-1.00;70.90;;;;;;5018989;28;20029;-73
2022/11/20 07:50:13;;;;;;;5.03;2.92;;;-0.90;71.00;;;;;;5012879;28;20029;-70
2022/11/20 07:52:40;;;;;;;5.90;3.75;;;-0.90;71.00;;;;;;5013958;28;20037;-72
2022/11/20 07:55:06;;;;;;;6.32;3.88;;;-0.90;71.00;;;;;;5022664;28;20018;-69
2022/11/20 07:57:32;;;;;;;3.58;3.25;;;-0.80;71.20;;;;;;5032584;28;20385;-68
2022/11/20 07:59:58;;;;;;;5.50;3.70;;;-0.80;71.20;;;;;;5016001;28;20030;-76
2022/11/20 08:02:23;;;;;;;6.70;3.28;;;-0.80;71.20;;;;;;5023665;28;20038;-76
2022/11/20 08:04:49;;;;;;;4.55;3.47;;;-0.70;71.10;;;;;;5036126;28;20079;-68
2022/11/20 08:07:15;;;;;;;6.20;3.55;;;-0.60;71.00;;;;;;5023617;28;20038;-78
2022/11/20 08:09:40;;;;;;;6.93;4.53;;;-0.60;71.00;;;;;;5018935;28;20422;-73
2022/11/20 08:14:50;;;;;;;6.93;3.63;;;-0.40;71.20;;;;;;5015918;28;20041;-73
2022/11/20 08:17:16;;;;;;;6.43;4.35;;;-0.30;71.20;;;;;;5041695;28;20492;-72
2022/11/20 08:19:41;;;;;;;5.05;3.28;;;-0.20;71.20;;;;;;5017986;28;20443;-76
2022/11/20 08:22:07;;;;;;;8.88;4.25;;;-0.20;71.20;;;;;;5023031;28;20037;-68
2022/11/20 08:24:33;;;;;;;4.55;3.45;;;-0.10;71.10;;;;;;5017545;28;20084;-67
2022/11/20 08:26:59;;;;;;;11.02;4.70;;;0.00;71.00;;;;;;5019611;28;20284;-68
2022/11/20 08:29:26;;;;;;;7.90;4.78;;;0.10;71.10;;;;;;5020092;28;20037;-68
2022/11/20 08:31:52;;;;;;;6.72;4.47;;;0.10;71.10;;;;;;5017380;28;20116;-68
2022/11/20 08:34:17;;;;;;;8.80;5.25;;;0.20;71.20;;;;;;5004324;28;20101;-77
2022/11/20 08:36:43;;;;;;;9.18;4.93;;;0.30;71.30;;;;;;5024095;28;20485;-77
2022/11/20 08:39:12;;;;;;;7.65;5.00;;;0.30;71.40;;;;;;5042443;28;20580;-79
2022/11/20 08:41:38;;;;;;;7.00;4.00;;;0.40;71.60;;;;;;5020265;28;20033;-80
2022/11/20 08:44:06;;;;;;;5.30;4.22;;;0.50;71.70;;;;;;5009825;28;20428;-78
2022/11/20 08:46:37;;;;;;;5.82;3.90;;;0.60;71.80;;;;;;5013112;28;20034;-79
2022/11/20 08:49:09;;;;;;;8.63;4.85;;;0.60;71.90;;;;;;5019542;28;20056;-78
2022/11/20 08:51:35;;;;;;;7.97;4.82;;;0.70;71.90;;;;;;5016369;28;20037;-78
2022/11/20 08:54:01;;;;;;;9.50;5.70;;;0.80;72.00;;;;;;5017788;28;20026;-80
2022/11/20 08:56:27;;;;;;;7.25;4.68;;;0.80;72.00;;;;;;5019815;28;20025;-79
2022/11/20 08:58:53;;;;;;;8.23;6.32;;;0.90;72.10;;;;;;5021551;28;20415;-79
2022/11/20 09:01:20;;;;;;;4.80;4.30;;;1.00;71.90;;;;;;5017258;28;20029;-80
2022/11/20 09:03:45;;;;;;;7.32;5.03;;;1.00;71.90;;;;;;5001856;28;20113;-79
2022/11/20 09:06:11;;;;;;;10.40;5.97;;;1.10;71.90;;;;;;5005800;28;20276;-81
2022/11/20 09:08:37;;;;;;;7.47;5.47;;;1.20;71.80;;;;;;5005988;28;20029;-81
2022/11/20 09:11:03;;;;;;;8.93;5.10;;;1.30;71.70;;;;;;5008567;28;20049;-81
2022/11/20 09:13:29;;;;;;;8.40;5.03;;;1.30;71.70;;;;;;5006240;28;20510;-80
2022/11/20 09:16:07;;;;;;;8.57;5.70;;;1.40;71.70;;;;;;5009879;28;20022;-80
2022/11/20 09:18:35;;;;;;;6.65;4.90;;;1.50;71.80;;;;;;5007129;28;20360;-80
2022/11/20 09:21:04;;;;;;;8.23;5.65;;;1.50;71.80;;;;;;5007664;28;20161;-81
2022/11/20 09:23:35;;;;;;;8.88;5.55;;;1.60;72.00;;;;;;5008697;28;20030;-80
2022/11/20 09:26:05;;;;;;;10.10;4.90;;;1.60;72.00;;;;;;5013104;28;20038;-81
2022/11/20 09:28:31;;;;;;;6.65;4.35;;;1.60;72.00;;;;;;5009866;28;20045;-78
2022/11/20 09:30:57;;;;;;;9.25;4.70;;;1.60;72.20;;;;;;5014996;28;20467;-80
2022/11/20 09:33:23;;;;;;;5.85;3.97;;;1.70;72.80;;;;;;5015709;28;20105;-69
2022/11/20 09:35:49;;;;;;;5.30;4.55;;;1.70;72.30;;;;;;5040622;28;20026;-82
2022/11/20 09:38:14;;;;;;;8.48;4.63;;;1.70;72.20;;;;;;5009743;28;20394;-81
2022/11/20 09:41:03;;;;;;;7.18;5.30;;;1.80;72.30;;;;;;5039436;28;20107;-79
2022/11/20 09:44:27;;;;;;;11.73;5.03;;;1.80;72.20;;;;;;5006925;28;20033;-79
2022/11/20 09:47:22;;;;;;;8.35;4.55;;;1.90;72.20;;;;;;4981800;28;20510;-80
2022/11/20 09:50:29;;;;;;;7.32;4.45;;;1.90;72.40;;;;;;5009391;28;20022;-80
2022/11/20 09:53:30;;;;;;;5.60;4.20;;;1.90;72.30;;;;;;5006526;28;20041;-80
2022/11/20 09:55:56;;;;;;;8.48;5.05;;;1.90;72.50;;;;;;5010106;28;20136;-80
2022/11/20 09:58:34;;;;;;;8.10;4.32;;;1.90;72.70;;;;;;5015937;28;20045;-80
2022/11/20 10:01:15;;;;;;;8.15;4.72;;;2.00;72.60;;;;;;4997061;28;20389;-79
2022/11/20 10:04:04;;;;;;;10.98;5.68;;;2.00;72.60;;;;;;5010288;28;20107;-79
2022/11/20 10:06:41;;;;;;;6.90;5.00;;;2.00;72.80;;;;;;5011705;28;20061;-79
2022/11/20 10:09:09;;;;;;;8.35;5.18;;;2.00;72.70;;;;;;5026064;28;20106;-80
2022/11/20 10:12:08;;;;;;;9.82;4.35;;;2.00;72.80;;;;;;5043962;28;20042;-80
2022/11/20 10:14:43;;;;;;;7.15;4.40;;;2.10;72.70;;;;;;5010246;28;20038;-80
2022/11/20 10:17:23;;;;;;;7.47;4.85;;;2.20;72.80;;;;;;5015104;28;20034;-80
2022/11/20 10:20:24;;;;;;;8.52;5.32;;;2.30;72.60;;;;;;5012808;28;20413;-78
2022/11/20 10:23:16;;;;;;;5.55;3.97;;;2.40;72.50;;;;;;5010027;28;20060;-79
2022/11/20 10:26:05;;;;;;;6.53;4.13;;;2.50;72.40;;;;;;5013323;28;20568;-79
2022/11/20 10:28:56;;;;;;;9.60;5.43;;;2.60;72.40;;;;;;5007724;28;20293;-78
2022/11/20 10:31:41;;;;;;;8.80;5.03;;;2.70;72.30;;;;;;5004139;28;20782;-79
2022/11/20 10:34:31;;;;;;;12.15;5.35;;;2.80;72.30;;;;;;4999949;28;20026;-80
2022/11/20 10:37:08;;;;;;;7.15;4.93;;;2.90;72.10;;;;;;5026142;28;20117;-79
2022/11/20 10:39:42;;;;;;;8.13;5.03;;;3.00;72.10;;;;;;5044752;28;20529;-79
2022/11/20 10:42:16;;;;;;;9.68;4.65;;;3.30;72.10;;;;;;4999607;28;20516;-77
2022/11/20 10:45:02;;;;;;;6.47;5.72;;;3.80;71.50;;;;;;5018477;28;20412;-79
2022/11/20 10:47:46;;;;;;;9.40;5.40;;;4.20;70.60;;;;;;5012310;28;20088;-78
2022/11/20 10:50:18;;;;;;;5.72;4.53;;;4.70;69.60;;;;;;5012900;28;20373;-78
2022/11/20 10:53:07;;;;;;;14.13;5.78;;;4.80;68.80;;;;;;5014944;28;20121;-79
2022/11/20 10:55:40;;;;;;;11.25;6.00;;;4.90;68.70;;;;;;5012348;28;20033;-69
2022/11/20 10:58:34;;;;;;;10.18;7.00;;;4.90;68.70;;;;;;5014178;28;20030;-70
2022/11/20 11:01:26;;;;;;;10.68;7.05;;;5.00;68.70;;;;;;5004703;28;20489;-70
2022/11/20 11:03:54;;;;;;;9.40;5.70;;;5.50;69.10;;;;;;4992869;28;20041;-70
2022/11/20 11:06:36;;;;;;;9.60;6.45;;;5.80;67.40;;;;;;5025456;28;20041;-70
2022/11/20 11:09:11;;;;;;;12.00;6.90;;;5.70;67.20;;;;;;5019271;28;20122;-70
2022/11/20 11:11:38;;;;;;;8.98;5.38;;;5.40;67.70;;;;;;5019295;28;20496;-70
2022/11/20 11:14:05;;;;;;;9.40;6.50;;;5.10;68.50;;;;;;5012035;28;20470;-71
2022/11/20 11:16:31;;;;;;;10.85;6.60;;;4.80;69.10;;;;;;5021266;28;20024;-70
2022/11/20 11:19:13;;;;;;;11.63;7.07;;;4.60;69.70;;;;;;5013523;28;20934;-71
2022/11/20 11:21:51;;;;;;;8.02;6.55;;;4.40;70.20;;;;;;5021960;28;20091;-71
2022/11/20 11:24:22;;;;;;;10.90;7.13;;;4.30;70.80;;;;;;5013782;28;20108;-71
2022/11/20 11:26:57;;;;;;;10.93;6.65;;;4.10;71.10;;;;;;5016462;28;20045;-70
2022/11/20 11:29:23;;;;;;;10.20;5.40;;;4.10;71.40;;;;;;5019738;28;20457;-70
2022/11/20 11:31:49;;;;;;;10.63;6.32;;;4.10;71.70;;;;;;5014036;28;20086;-70
2022/11/20 11:34:17;;;;;;;11.75;5.97;;;4.10;71.80;;;;;;5013613;28;20121;-71
2022/11/20 11:36:56;;;;;;;11.27;6.10;;;4.10;71.80;;;;;;5016429;28;20042;-71
2022/11/20 11:39:22;;;;;;;8.25;5.30;;;4.10;71.80;;;;;;5029530;28;20033;-70
2022/11/20 11:41:49;;;;;;;11.73;6.25;;;4.10;71.80;;;;;;5030773;28;20104;-69
2022/11/20 11:47:18;;;;;;;11.00;7.20;;;4.20;71.90;;;;;;5006533;28;20105;-69
2022/11/20 11:49:44;;;;;;;10.70;6.72;;;4.20;72.00;;;;;;5027065;28;20044;-71
2022/11/20 11:52:21;;;;;;;8.07;6.32;;;4.30;72.00;;;;;;5033812;28;20048;-70
2022/11/20 11:54:54;;;;;;;10.00;7.05;;;4.40;71.60;;;;;;5014014;28;20465;-71
2022/11/20 11:57:23;;;;;;;10.95;7.30;;;4.50;71.70;;;;;;5020616;28;20029;-70
2022/11/20 12:00:11;;;;;;;10.50;6.25;;;4.40;71.90;;;;;;5020652;28;20030;-71
2022/11/20 12:02:49;;;;;;;9.48;6.72;;;4.40;71.90;;;;;;5008736;28;20033;-77
2022/11/20 12:05:38;;;;;;;10.05;6.45;;;4.30;72.10;;;;;;5013739;28;20037;-77
2022/11/20 12:08:12;;;;;;;12.15;6.03;;;4.20;72.40;;;;;;5011984;28;20092;-71
2022/11/20 12:10:38;;;;;;;12.88;6.78;;;4.10;72.60;;;;;;5016958;28;20043;-73
2022/11/20 12:13:26;;;;;;;8.80;6.40;;;4.10;72.80;;;;;;5019055;28;20496;-73
2022/11/20 12:15:53;;;;;;;12.05;7.10;;;4.10;73.10;;;;;;5018418;28;20064;-72
2022/11/20 12:18:21;;;;;;;10.63;7.30;;;4.00;73.20;;;;;;4992310;28;20065;-73
2022/11/20 12:21:17;;;;;;;10.35;6.03;;;4.00;73.40;;;;;;5015453;28;20384;-73
2022/11/20 12:23:56;;;;;;;7.47;5.40;;;4.00;73.40;;;;;;5000449;28;20041;-74
2022/11/20 12:26:31;;;;;;;9.20;4.90;;;4.00;73.50;;;;;;5010206;28;20117;-73
2022/11/20 12:29:11;;;;;;;10.73;6.88;;;3.90;73.60;;;;;;5020675;28;20041;-73
2022/11/20 12:32:15;;;;;;;8.48;5.65;;;3.90;73.70;;;;;;5010659;28;20022;-71
2022/11/20 12:34:59;;;;;;;7.22;5.53;;;3.90;73.60;;;;;;5026692;28;20501;-73
2022/11/20 12:38:11;;;;;;;8.30;6.00;;;3.90;73.80;;;;;;5013463;28;20497;-73
2022/11/20 12:40:58;;;;;;;8.63;5.70;;;3.90;74.00;;;;;;5016848;28;20057;-73
2022/11/20 12:47:17;;;;;;;10.65;4.50;;;4.00;74.30;;;;;;5008945;28;20104;-72
2022/11/20 12:50:21;;;;;;;8.10;6.18;;;4.00;74.40;;;;;;5020850;28;20029;-73
2022/11/20 12:53:04;;;;;;;8.90;5.18;;;4.10;74.50;;;;;;4997936;28;20034;-73
2022/11/20 12:55:47;;;;;;;9.20;5.72;;;4.10;74.70;;;;;;5017890;28;21661;-74
2022/11/20 12:58:39;;;;;;;12.15;5.60;;;4.10;74.70;;;;;;5011078;28;20136;-73
2022/11/20 13:01:40;;;;;;;6.70;5.50;;;4.20;74.90;;;;;;5019948;28;20469;-73
2022/11/20 13:04:15;;;;;;;6.47;4.65;;;4.30;75.10;;;;;;5021829;28;20132;-73
2022/11/20 13:06:41;;;;;;;7.25;5.32;;;4.30;75.00;;;;;;5012888;28;20049;-72
2022/11/20 13:09:13;;;;;;;11.50;6.70;;;4.30;75.30;;;;;;5048513;28;20029;-73
2022/11/20 13:12:10;;;;;;;8.77;5.70;;;4.30;75.30;;;;;;5003660;28;20053;-73
2022/11/20 13:14:53;;;;;;;8.48;6.10;;;4.40;75.60;;;;;;4992606;28;20034;-73
2022/11/20 13:17:23;;;;;;;10.30;5.75;;;4.30;75.60;;;;;;4992463;28;20026;-73
2022/11/20 13:19:55;;;;;;;17.83;6.53;;;4.30;75.70;;;;;;4996422;28;20481;-72